Terminal Aerodrome Forecast
Issued by NWS

Home | Current Version | Previous Version | Text Only | Print | Product List | Glossary Off
Versions: 1 2 3 4 5 6 7 8 9 10 11 12 13 14 15 16 17 18 19 20 21 22 23 24 25 26 27 28 29 30 31 32 33 34

000
FTUS43 KLOT 242200 AAA
TAFORD
TAF AMD
KORD 242203Z 2422/2524 11010KT P6SM SCT035
     FM250100 13006KT P6SM FEW025
     FM250800 18004KT 5SM BR SCT250
     FM251400 20007KT P6SM BKN250
     FM252100 20010KT P6SM SCT035 BKN250 PROB30 2521/2524 TSRA
      BKN035CB=

USA.gov is the U.S. government's official web portal to all federal, state and local government web resources and services.